Time;durP1;ratioP1;P1;durP2;ratioP2;P2;SDS_P1;SDS_P2;PMS_P1;PMS_P2;Temp;Humidity;BMP_temperature;BMP_pressure;BME280_temperature;BME280_humidity;BME280_pressure;Samples;Min_cycle;Max_cycle;Signal;HPM_P1;HPM_P2
2021/08/05 00:00:30;;;;;;;14.50;8.50;;;16.10;1.00;;;;;;5034082;28;20883;-82
2021/08/05 00:13:38;;;;;;;11.67;8.00;;;16.20;1.00;;;;;;5028595;28;20395;-82
2021/08/05 00:19:51;;;;;;;12.70;7.50;;;16.20;1.00;;;;;;5033962;28;20415;-82
2021/08/05 00:25:39;;;;;;;10.93;7.57;;;16.20;1.00;;;;;;5034396;28;21096;-81
2021/08/05 00:35:14;;;;;;;12.40;7.60;;;16.20;1.00;;;;;;5033112;28;20934;-81
2021/08/05 00:41:02;;;;;;;12.60;8.63;;;16.20;1.00;;;;;;5033678;28;20597;-81
2021/08/05 00:53:34;;;;;;;23.13;8.50;;;16.10;1.00;;;;;;5033157;28;20413;-82
2021/08/05 00:56:03;;;;;;;11.80;8.60;;;17.10;1.00;;;;;;5031986;28;20477;-81
2021/08/05 00:58:28;;;;;;;17.20;9.30;;;16.20;1.00;;;;;;5031714;28;20584;-81
2021/08/05 01:01:16;;;;;;;14.97;8.37;;;16.20;1.00;;;;;;5032626;28;20405;-81
2021/08/05 01:13:55;;;;;;;10.97;8.23;;;16.20;1.00;;;;;;5028124;28;20485;-81
2021/08/05 01:17:14;;;;;;;12.93;8.50;;;16.20;1.00;;;;;;5032843;28;20427;-82
2021/08/05 01:26:36;;;;;;;13.50;7.70;;;16.10;1.00;;;;;;5014774;28;20422;-81
2021/08/05 01:32:24;;;;;;;9.57;7.57;;;16.10;1.00;;;;;;5033246;28;20374;-81
2021/08/05 01:35:44;;;;;;;12.73;8.50;;;16.10;1.00;;;;;;5031487;28;20414;-81
2021/08/05 01:38:28;;;;;;;11.20;7.73;;;16.00;1.00;;;;;;5031699;28;20448;-82
2021/08/05 01:48:03;;;;;;;12.10;7.80;;;16.00;1.00;;;;;;5035451;28;20459;-81
2021/08/05 01:57:13;;;;;;;14.53;8.77;;;16.00;1.00;;;;;;5035542;28;20469;-81
2021/08/05 02:10:29;;;;;;;11.10;8.23;;;15.90;1.00;;;;;;5024267;28;20454;-82
2021/08/05 02:13:20;;;;;;;10.90;8.00;;;15.90;1.00;;;;;;5035050;28;20447;-82
2021/08/05 02:16:17;;;;;;;11.20;8.40;;;15.90;1.00;;;;;;5030839;28;20419;-81
2021/08/05 02:22:06;;;;;;;10.60;7.80;;;15.80;1.00;;;;;;5034148;28;20384;-81
2021/08/05 02:31:16;;;;;;;12.40;7.97;;;15.70;1.00;;;;;;5015167;28;20447;-81
2021/08/05 02:37:04;;;;;;;13.90;8.37;;;15.70;1.00;;;;;;5034069;28;20469;-81
2021/08/05 02:39:39;;;;;;;17.20;9.50;;;15.60;1.00;;;;;;5034705;28;20812;-82
2021/08/05 02:45:27;;;;;;;12.57;8.60;;;15.40;1.00;;;;;;4975697;28;1131053;-81
2021/08/05 02:47:53;;;;;;;14.80;8.30;;;15.40;1.00;;;;;;5026093;28;20830;-81
2021/08/05 02:57:50;;;;;;;17.20;8.37;;;15.20;1.00;;;;;;5034498;28;20469;-81
2021/08/05 03:07:38;;;;;;;14.60;9.07;;;15.10;1.00;;;;;;5034430;28;20422;-81
2021/08/05 03:10:38;;;;;;;14.23;9.17;;;15.00;1.00;;;;;;5034746;28;20490;-81
2021/08/05 03:13:50;;;;;;;16.90;9.63;;;14.90;1.00;;;;;;5033987;28;20394;-81
2021/08/05 03:23:38;;;;;;;18.60;11.03;;;14.80;1.00;;;;;;5034690;28;20450;-81
2021/08/05 03:26:38;;;;;;;21.00;11.33;;;14.80;1.00;;;;;;5034905;28;20445;-81
2021/08/05 03:29:32;;;;;;;17.90;10.40;;;14.70;1.00;;;;;;5033226;28;20447;-81
2021/08/05 03:35:39;;;;;;;35.93;9.53;;;14.60;1.00;;;;;;5033353;28;20377;-81
2021/08/05 03:38:09;;;;;;;16.93;9.67;;;14.60;1.00;;;;;;5034296;28;20437;-81
2021/08/05 03:40:34;;;;;;;28.07;9.73;;;14.60;1.00;;;;;;5034402;28;20464;-81
2021/08/05 03:43:09;;;;;;;16.00;9.80;;;14.60;1.00;;;;;;5034959;28;20479;-81
2021/08/05 03:45:34;;;;;;;18.93;10.90;;;14.50;1.00;;;;;;5033082;28;20271;-81
2021/08/05 03:48:00;;;;;;;16.63;10.33;;;14.50;1.00;;;;;;5033407;28;20948;-81
2021/08/05 03:54:38;;;;;;;18.93;10.57;;;14.40;1.00;;;;;;5034041;28;20394;-82
2021/08/05 03:57:39;;;;;;;17.30;9.60;;;14.30;1.00;;;;;;5015162;28;20415;-84
2021/08/05 04:00:38;;;;;;;18.53;9.90;;;14.30;1.00;;;;;;5032687;28;20428;-81
2021/08/05 04:03:50;;;;;;;15.00;9.50;;;14.30;1.00;;;;;;5030849;28;20779;-79
2021/08/05 04:06:38;;;;;;;14.87;9.80;;;14.20;1.00;;;;;;5028477;28;20451;-80
2021/08/05 04:09:09;;;;;;;20.73;10.57;;;14.10;1.00;;;;;;5033862;28;20411;-79
2021/08/05 04:11:51;;;;;;;21.90;10.00;;;14.10;1.00;;;;;;5033691;28;20790;-80
2021/08/05 04:17:51;;;;;;;21.50;10.03;;;14.10;1.00;;;;;;5028878;28;20444;-81
2021/08/05 04:20:22;;;;;;;21.90;10.40;;;14.00;1.00;;;;;;5033778;28;20388;-80
2021/08/05 04:23:08;;;;;;;15.37;10.40;;;14.00;1.00;;;;;;5030775;28;20390;-80
2021/08/05 04:26:09;;;;;;;24.30;10.27;;;14.10;1.00;;;;;;5033356;28;20888;-80
2021/08/05 04:28:35;;;;;;;19.67;10.60;;;14.10;1.00;;;;;;5033587;28;20393;-79
2021/08/05 04:31:09;;;;;;;22.67;10.60;;;14.10;1.00;;;;;;5032743;28;20408;-80
2021/08/05 04:33:51;;;;;;;17.60;10.60;;;14.10;1.00;;;;;;5033268;28;20172;-81
2021/08/05 04:36:33;;;;;;;15.67;10.27;;;14.10;1.00;;;;;;5032052;28;20403;-79
2021/08/05 04:42:50;;;;;;;21.20;9.43;;;14.10;1.00;;;;;;5033100;28;20772;-85
2021/08/05 04:45:22;;;;;;;23.70;9.40;;;14.10;1.00;;;;;;5023028;28;20470;-80
2021/08/05 04:48:09;;;;;;;16.03;9.67;;;14.10;1.00;;;;;;5031158;28;20432;-81
2021/08/05 04:50:45;;;;;;;17.10;10.30;;;14.10;1.00;;;;;;5033470;28;20362;-82
2021/08/05 04:53:50;;;;;;;22.53;10.60;;;14.20;1.00;;;;;;5033234;28;20928;-82
2021/08/05 04:56:38;;;;;;;20.73;10.27;;;14.20;1.00;;;;;;5033345;28;20377;-82
2021/08/05 04:59:26;;;;;;;24.80;10.70;;;14.20;1.00;;;;;;5030578;28;20502;-81
2021/08/05 05:02:03;;;;;;;17.83;10.23;;;14.20;1.00;;;;;;5027175;28;20418;-81
2021/08/05 05:04:29;;;;;;;18.97;10.30;;;14.20;1.00;;;;;;5028867;28;20433;-81
2021/08/05 05:07:44;;;;;;;18.97;10.77;;;14.20;1.00;;;;;;5032722;28;20513;-81
2021/08/05 05:13:39;;;;;;;17.73;9.60;;;14.40;1.00;;;;;;5025124;28;20435;-81
2021/08/05 05:16:53;;;;;;;15.40;10.27;;;14.50;1.00;;;;;;5033072;28;20389;-84
2021/08/05 05:19:38;;;;;;;19.70;10.47;;;14.50;1.00;;;;;;5033043;28;20988;-81
2021/08/05 05:22:15;;;;;;;23.20;10.43;;;14.70;1.00;;;;;;5036597;28;20393;-81
2021/08/05 05:25:09;;;;;;;17.77;10.30;;;14.70;1.00;;;;;;5032939;28;20434;-81
2021/08/05 05:31:09;;;;;;;16.43;9.30;;;14.90;1.00;;;;;;5036944;28;20779;-82
2021/08/05 05:33:34;;;;;;;13.37;9.40;;;15.10;1.00;;;;;;5036269;28;20893;-81
2021/08/05 05:36:00;;;;;;;17.53;9.40;;;15.10;1.00;;;;;;5034906;28;20454;-82
2021/08/05 05:38:26;;;;;;;15.53;9.00;;;15.20;1.00;;;;;;5036894;28;20624;-82
2021/08/05 05:40:52;;;;;;;17.30;9.33;;;15.20;1.00;;;;;;5027039;28;20556;-82
2021/08/05 05:43:18;;;;;;;12.77;9.00;;;;;;;;;;5053969;28;20454;-82
2021/08/05 05:45:44;;;;;;;15.90;9.07;;;;;;;;;;5035950;28;20192;-81
2021/08/05 05:48:10;;;;;;;15.97;10.30;;;15.40;1.00;;;;;;5019931;28;20382;-82
2021/08/05 05:50:37;;;;;;;16.13;9.90;;;15.50;1.00;;;;;;5032262;28;20393;-82
2021/08/05 05:53:04;;;;;;;19.20;10.70;;;15.50;1.00;;;;;;5029853;28;20484;-82
2021/08/05 05:55:29;;;;;;;12.77;8.50;;;15.50;1.00;;;;;;5035708;28;20806;-81
2021/08/05 05:57:57;;;;;;;13.50;8.43;;;;;;;;;;5030185;28;20454;-81
2021/08/05 06:00:23;;;;;;;18.07;11.23;;;;;;;;;;5023475;28;20173;-81
2021/08/05 06:02:49;;;;;;;14.43;9.43;;;15.70;1.00;;;;;;5022194;28;20419;-81
2021/08/05 06:05:15;;;;;;;16.53;10.97;;;;;;;;;;5027677;28;20406;-84
2021/08/05 06:07:49;;;;;;;19.60;11.07;;;15.90;1.00;;;;;;5025703;28;20188;-85
2021/08/05 06:10:20;;;;;;;19.13;10.60;;;16.10;1.00;;;;;;5033391;28;20479;-85
2021/08/05 06:12:46;;;;;;;18.73;9.67;;;16.10;1.00;;;;;;5036291;28;20403;-85
2021/08/05 06:15:13;;;;;;;15.73;9.30;;;16.20;1.00;;;;;;5030722;28;20402;-82
2021/08/05 06:17:42;;;;;;;15.33;9.33;;;;;;;;;;5014383;28;20295;-81
2021/08/05 06:20:10;;;;;;;12.50;8.77;;;16.30;1.00;;;;;;5015795;28;20901;-83
2021/08/05 06:22:37;;;;;;;11.20;8.90;;;16.40;1.00;;;;;;5015887;28;20403;-81
2021/08/05 06:25:03;;;;;;;16.50;8.67;;;16.50;1.00;;;;;;5015721;28;20389;-81
2021/08/05 06:27:29;;;;;;;14.07;8.80;;;16.60;1.00;;;;;;5028280;28;20398;-81
2021/08/05 06:29:58;;;;;;;15.33;9.43;;;16.70;1.00;;;;;;5035163;28;20430;-81
2021/08/05 06:32:24;;;;;;;12.63;7.53;;;16.80;1.00;;;;;;5032059;28;20195;-81
2021/08/05 06:34:50;;;;;;;12.50;8.03;;;17.10;1.00;;;;;;5027602;28;20451;-81
2021/08/05 06:37:21;;;;;;;10.53;6.77;;;17.10;1.00;;;;;;5033483;28;20817;-81
2021/08/05 06:39:46;;;;;;;15.03;7.80;;;17.20;1.00;;;;;;5015975;28;20232;-82
2021/08/05 06:42:12;;;;;;;12.63;7.40;;;17.40;1.00;;;;;;5034560;28;20924;-81
2021/08/05 06:44:40;;;;;;;11.33;7.30;;;17.70;1.00;;;;;;5033151;28;20174;-81
2021/08/05 06:47:07;;;;;;;10.80;7.47;;;17.70;1.00;;;;;;5033213;28;20193;-81
2021/08/05 06:49:34;;;;;;;14.43;7.97;;;17.80;1.00;;;;;;5032702;28;20963;-81
2021/08/05 06:52:00;;;;;;;10.87;7.27;;;17.90;1.00;;;;;;5015524;28;20476;-81
2021/08/05 06:54:27;;;;;;;13.00;7.80;;;18.00;1.00;;;;;;5030728;28;20504;-81
2021/08/05 06:56:53;;;;;;;12.33;6.70;;;18.10;1.00;;;;;;5034492;28;21165;-81
2021/08/05 06:59:22;;;;;;;13.60;6.90;;;18.10;1.00;;;;;;5034551;28;20420;-81
2021/08/05 07:01:48;;;;;;;11.70;7.40;;;18.10;1.00;;;;;;5032455;28;20429;-81
2021/08/05 07:04:14;;;;;;;9.07;6.43;;;18.10;1.00;;;;;;5031428;28;20480;-81
2021/08/05 07:06:41;;;;;;;15.53;7.27;;;18.10;1.00;;;;;;5025846;28;20195;-81
2021/08/05 07:09:07;;;;;;;15.63;7.10;;;18.10;1.00;;;;;;5029353;28;20932;-81
2021/08/05 07:11:33;;;;;;;11.70;7.30;;;18.20;1.00;;;;;;5023034;28;20719;-81
2021/08/05 07:14:10;;;;;;;10.27;6.80;;;18.20;1.00;;;;;;5017227;28;20502;-81
2021/08/05 07:16:39;;;;;;;15.70;7.07;;;18.30;1.00;;;;;;5034668;28;20459;-81
2021/08/05 07:22:40;;;;;;;10.60;6.23;;;18.40;1.00;;;;;;5032582;28;20414;-81
2021/08/05 07:25:26;;;;;;;9.37;6.80;;;18.50;1.00;;;;;;5034156;28;20414;-80
2021/08/05 07:28:03;;;;;;;12.53;6.77;;;18.60;1.00;;;;;;5028013;28;20414;-81
2021/08/05 07:30:30;;;;;;;11.90;6.40;;;18.70;1.00;;;;;;5032805;28;20425;-82
2021/08/05 07:32:57;;;;;;;11.13;7.23;;;18.70;1.00;;;;;;5033870;28;20436;-84
2021/08/05 07:35:23;;;;;;;15.47;6.50;;;18.70;1.00;;;;;;5033923;28;20425;-85
2021/08/05 07:38:08;;;;;;;19.33;6.50;;;18.80;1.00;;;;;;5033009;28;20473;-85
2021/08/05 07:40:34;;;;;;;9.10;5.93;;;18.90;1.00;;;;;;5034054;28;20186;-82
2021/08/05 07:43:03;;;;;;;9.70;5.83;;;19.20;1.00;;;;;;5025163;28;20388;-81
2021/08/05 07:45:39;;;;;;;10.40;5.83;;;19.30;1.00;;;;;;5034368;28;20170;-81
2021/08/05 07:48:15;;;;;;;13.73;6.30;;;19.30;1.00;;;;;;5034049;28;20437;-81
2021/08/05 07:50:41;;;;;;;6.77;5.37;;;19.30;1.00;;;;;;5034121;28;20882;-82
2021/08/05 07:53:15;;;;;;;7.03;5.30;;;19.50;1.00;;;;;;5034061;28;20400;-81
2021/08/05 07:55:40;;;;;;;8.73;5.47;;;19.60;1.00;;;;;;5034066;28;20171;-81
2021/08/05 07:58:09;;;;;;;11.00;4.83;;;19.70;1.00;;;;;;5030616;28;20478;-82
2021/08/05 08:00:39;;;;;;;13.43;5.70;;;19.80;1.00;;;;;;5014403;28;20211;-81
2021/08/05 08:03:05;;;;;;;18.50;5.63;;;19.80;1.00;;;;;;5014044;28;20431;-81
2021/08/05 08:05:33;;;;;;;5.93;4.87;;;;;;;;;;5030161;28;20451;-81
2021/08/05 08:08:03;;;;;;;7.77;5.50;;;;;;;;;;5029381;28;20188;-80
2021/08/05 08:10:39;;;;;;;12.20;6.10;;;;;;;;;;5015822;28;20485;-81
2021/08/05 08:13:24;;;;;;;8.07;5.00;;;;;;;;;;5028951;28;20416;-80
2021/08/05 08:15:51;;;;;;;6.70;4.60;;;;;;;;;;5032469;28;21054;-81
2021/08/05 08:18:17;;;;;;;5.90;4.53;;;;;;;;;;5032517;28;20456;-80
2021/08/05 08:20:43;;;;;;;7.30;5.57;;;;;;;;;;5033650;28;20393;-80
2021/08/05 08:23:10;;;;;;;14.97;4.80;;;;;;;;;;5032274;28;20408;-80
2021/08/05 08:25:39;;;;;;;8.03;5.07;;;;;;;;;;5033608;28;20753;-80
2021/08/05 08:28:09;;;;;;;8.67;5.00;;;;;;;;;;5032966;28;20787;-80
2021/08/05 08:30:35;;;;;;;6.40;4.60;;;20.90;1.00;;;;;;5033312;28;20420;-80
2021/08/05 08:33:01;;;;;;;4.73;4.10;;;;;;;;;;5033274;28;20405;-82
2021/08/05 08:35:28;;;;;;;7.67;4.33;;;;;;;;;;5033179;28;20398;-82
2021/08/05 08:38:04;;;;;;;6.37;4.67;;;21.30;1.00;;;;;;5031889;28;20456;-82
2021/08/05 08:40:33;;;;;;;6.77;4.57;;;21.40;1.00;;;;;;5027747;28;20839;-82
2021/08/05 08:43:10;;;;;;;4.80;4.30;;;21.50;1.00;;;;;;5033606;28;20489;-81
2021/08/05 08:45:40;;;;;;;5.43;4.00;;;21.60;1.00;;;;;;5033173;28;20415;-82
2021/08/05 08:48:06;;;;;;;7.60;4.27;;;21.80;1.00;;;;;;5033241;28;20493;-81
2021/08/05 08:50:40;;;;;;;11.83;4.10;;;22.00;1.00;;;;;;5031845;28;20540;-80
2021/08/05 08:53:08;;;;;;;5.77;3.90;;;22.00;1.00;;;;;;5032987;28;20401;-80
2021/08/05 08:55:35;;;;;;;5.80;4.17;;;22.10;1.00;;;;;;5031728;28;20399;-79
2021/08/05 08:58:02;;;;;;;15.57;4.50;;;22.20;1.00;;;;;;5027210;28;20470;-80
2021/08/05 09:00:39;;;;;;;9.03;3.87;;;22.30;1.00;;;;;;5024185;28;20427;-80
2021/08/05 09:03:06;;;;;;;21.00;4.93;;;22.40;1.00;;;;;;5033134;28;20420;-81
2021/08/05 09:05:32;;;;;;;6.00;4.10;;;22.40;1.00;;;;;;5032932;28;20428;-80
2021/08/05 09:08:32;;;;;;;5.10;3.87;;;22.60;1.00;;;;;;5014872;28;20420;-80
2021/08/05 09:10:58;;;;;;;3.83;3.50;;;22.70;1.00;;;;;;5013614;28;20794;-80
2021/08/05 09:13:24;;;;;;;5.77;4.47;;;22.70;1.00;;;;;;5017082;28;20450;-80
2021/08/05 09:15:50;;;;;;;8.53;4.40;;;22.80;1.00;;;;;;5020276;28;20427;-80
2021/08/05 09:18:36;;;;;;;6.30;3.97;;;22.80;1.00;;;;;;5031032;28;20208;-82
2021/08/05 09:21:12;;;;;;;7.23;3.83;;;23.00;1.00;;;;;;5014346;28;20561;-82
2021/08/05 09:23:50;;;;;;;6.37;4.23;;;23.40;1.00;;;;;;5032464;28;20448;-82
2021/08/05 09:26:29;;;;;;;11.43;3.33;;;23.60;1.00;;;;;;5032396;28;20485;-82
2021/08/05 09:29:03;;;;;;;4.80;3.93;;;23.60;1.00;;;;;;5016953;28;20985;-82
2021/08/05 09:31:30;;;;;;;4.60;3.47;;;24.10;1.00;;;;;;5022605;28;20716;-82
2021/08/05 09:34:08;;;;;;;4.37;3.60;;;24.20;1.00;;;;;;5015774;28;20457;-80
2021/08/05 09:36:35;;;;;;;8.33;3.37;;;24.10;1.00;;;;;;5017339;28;20413;-80
2021/08/05 09:39:13;;;;;;;3.77;3.47;;;24.10;1.00;;;;;;5032534;28;20478;-80
2021/08/05 09:42:00;;;;;;;3.10;2.67;;;24.10;1.00;;;;;;5032272;28;20394;-79
2021/08/05 09:44:42;;;;;;;4.03;3.23;;;24.40;1.00;;;;;;5029113;28;20406;-80
2021/08/05 09:47:13;;;;;;;7.70;3.50;;;24.70;1.00;;;;;;5027757;28;20456;-80
2021/08/05 09:49:50;;;;;;;4.13;2.73;;;24.80;1.00;;;;;;5022449;28;20431;-83
2021/08/05 09:52:26;;;;;;;5.33;3.13;;;24.80;1.00;;;;;;5031658;28;20433;-82
2021/08/05 09:54:52;;;;;;;6.27;3.00;;;24.80;1.00;;;;;;5028930;28;20433;-82
2021/08/05 09:57:31;;;;;;;4.70;2.90;;;24.80;1.00;;;;;;5030027;28;20481;-82
2021/08/05 10:00:05;;;;;;;3.63;3.00;;;24.80;1.00;;;;;;5031876;28;20674;-82
2021/08/05 10:02:48;;;;;;;4.30;3.00;;;24.80;1.00;;;;;;5028768;28;20474;-82
2021/08/05 10:05:18;;;;;;;6.00;2.70;;;25.00;1.00;;;;;;5017902;28;20410;-79
2021/08/05 10:07:47;;;;;;;3.63;2.80;;;25.00;1.00;;;;;;5035391;28;20417;-79
2021/08/05 10:10:15;;;;;;;3.07;2.77;;;25.10;1.00;;;;;;5027656;28;20438;-79
2021/08/05 10:12:56;;;;;;;2.90;2.60;;;25.10;1.00;;;;;;5035474;28;20392;-79
2021/08/05 10:15:23;;;;;;;9.30;3.90;;;;;;;;;;5023488;28;20527;-79
2021/08/05 10:17:54;;;;;;;13.30;3.60;;;25.10;1.00;;;;;;5027022;28;20478;-79
2021/08/05 10:20:21;;;;;;;7.83;3.27;;;;;;;;;;5034772;28;20436;-80
2021/08/05 10:22:48;;;;;;;5.30;3.13;;;25.20;1.00;;;;;;5035246;28;20411;-79
2021/08/05 10:25:27;;;;;;;2.70;2.50;;;25.20;1.00;;;;;;5034776;28;21072;-79
2021/08/05 10:28:03;;;;;;;2.60;2.40;;;25.10;1.00;;;;;;5035685;28;20959;-79
2021/08/05 10:30:41;;;;;;;2.53;2.33;;;25.00;1.00;;;;;;5033692;28;20416;-79
2021/08/05 10:33:41;;;;;;;3.57;3.00;;;24.90;1.00;;;;;;5021738;28;20457;-79
2021/08/05 10:36:33;;;;;;;3.20;2.90;;;24.80;1.00;;;;;;5034366;28;20420;-82
2021/08/05 10:38:59;;;;;;;3.20;2.90;;;24.60;1.00;;;;;;5034486;28;20437;-82
2021/08/05 10:41:32;;;;;;;2.20;2.10;;;24.80;1.00;;;;;;5030897;28;20415;-82
2021/08/05 10:44:02;;;;;;;7.50;2.70;;;24.80;1.00;;;;;;5031788;28;20950;-82
2021/08/05 10:46:35;;;;;;;5.20;2.20;;;24.80;1.00;;;;;;5032602;28;20428;-82
2021/08/05 10:49:08;;;;;;;2.37;2.17;;;25.00;1.00;;;;;;5028886;28;20489;-79
2021/08/05 10:51:41;;;;;;;6.03;2.80;;;25.00;1.00;;;;;;5025552;28;20443;-82
2021/08/05 10:54:08;;;;;;;5.47;2.30;;;;;;;;;;5016630;28;20431;-82
2021/08/05 10:56:35;;;;;;;5.50;2.63;;;;;;;;;;5025777;28;20421;-82
2021/08/05 10:59:04;;;;;;;3.37;2.83;;;24.60;1.00;;;;;;5034851;28;20422;-83
2021/08/05 11:01:55;;;;;;;3.83;3.43;;;24.60;1.00;;;;;;5023694;28;20431;-82
2021/08/05 11:04:50;;;;;;;4.20;2.60;;;24.40;1.00;;;;;;5015391;28;20413;-82
2021/08/05 11:07:33;;;;;;;3.53;2.87;;;24.40;1.00;;;;;;5015395;28;20880;-82
2021/08/05 11:10:22;;;;;;;3.20;2.57;;;24.30;1.00;;;;;;5031849;28;20413;-82
2021/08/05 11:13:08;;;;;;;4.23;3.60;;;24.30;1.00;;;;;;5033792;28;20486;-82
2021/08/05 11:15:39;;;;;;;3.93;3.17;;;24.30;1.00;;;;;;5034988;28;20906;-83
2021/08/05 11:18:10;;;;;;;4.63;3.80;;;24.50;1.00;;;;;;5025553;28;20474;-82
2021/08/05 11:20:51;;;;;;;5.23;3.30;;;24.90;1.00;;;;;;5031092;28;20430;-80
2021/08/05 11:23:31;;;;;;;4.97;3.37;;;24.90;1.00;;;;;;5031603;28;20412;-79
2021/08/05 11:25:57;;;;;;;7.07;3.40;;;24.90;1.00;;;;;;5033211;28;20950;-78
2021/08/05 11:28:28;;;;;;;3.87;3.10;;;24.80;1.00;;;;;;5030169;28;20415;-79
2021/08/05 11:31:44;;;;;;;7.63;2.93;;;24.90;1.00;;;;;;5021189;28;20426;-79
2021/08/05 11:34:15;;;;;;;5.73;3.10;;;24.90;1.00;;;;;;5034044;28;20441;-78
2021/08/05 11:36:46;;;;;;;3.47;3.17;;;25.10;1.00;;;;;;5034591;28;20948;-82
2021/08/05 11:39:21;;;;;;;2.73;2.53;;;25.10;1.00;;;;;;5031822;28;20427;-82
2021/08/05 11:45:15;;;;;;;3.50;3.03;;;24.90;1.00;;;;;;5014801;28;20380;-82
2021/08/05 11:47:42;;;;;;;6.97;4.07;;;24.80;1.00;;;;;;5014005;28;20433;-82
2021/08/05 11:50:18;;;;;;;4.03;3.40;;;24.80;1.00;;;;;;5016368;28;20429;-82
2021/08/05 11:52:51;;;;;;;4.37;3.30;;;25.00;1.00;;;;;;5033730;28;20471;-82
2021/08/05 11:55:27;;;;;;;4.63;3.53;;;25.00;1.00;;;;;;5033837;28;20400;-82
2021/08/05 11:58:02;;;;;;;3.63;3.33;;;25.10;1.00;;;;;;5033665;28;20448;-82
2021/08/05 12:00:39;;;;;;;4.00;3.40;;;25.10;1.00;;;;;;5033550;28;20426;-82
2021/08/05 12:03:12;;;;;;;12.13;3.90;;;25.20;1.00;;;;;;5028762;28;20437;-82
2021/08/05 12:05:43;;;;;;;3.40;3.10;;;25.30;1.00;;;;;;5012759;28;20756;-79
2021/08/05 12:08:10;;;;;;;5.40;3.17;;;25.30;1.00;;;;;;5013996;28;20406;-79
2021/08/05 12:10:46;;;;;;;3.40;3.10;;;25.50;1.00;;;;;;5013589;28;20403;-79
2021/08/05 12:13:17;;;;;;;4.53;3.40;;;25.60;1.00;;;;;;5041127;28;20451;-79
2021/08/05 12:15:52;;;;;;;5.53;3.70;;;26.20;1.00;;;;;;5053217;28;20434;-79
2021/08/05 12:18:24;;;;;;;7.13;4.03;;;26.20;1.00;;;;;;5038111;28;21027;-79
2021/08/05 12:20:52;;;;;;;3.50;3.20;;;26.50;1.00;;;;;;5013901;28;20764;-79
2021/08/05 12:26:12;;;;;;;3.60;3.27;;;26.80;1.00;;;;;;5013491;28;20396;-79
2021/08/05 12:28:42;;;;;;;3.80;3.40;;;26.80;1.00;;;;;;5012157;28;20423;-78
2021/08/05 12:31:20;;;;;;;9.13;3.17;;;26.70;1.00;;;;;;5012026;28;20903;-78
2021/08/05 12:33:46;;;;;;;3.90;3.50;;;26.50;1.00;;;;;;5030753;28;20429;-78
2021/08/05 12:36:17;;;;;;;3.33;3.00;;;26.50;1.00;;;;;;5019912;28;20793;-79
2021/08/05 12:38:45;;;;;;;3.83;2.70;;;26.50;1.00;;;;;;5013576;28;20472;-79
2021/08/05 12:41:15;;;;;;;3.47;3.13;;;26.50;1.00;;;;;;5013178;28;20427;-79
2021/08/05 12:43:43;;;;;;;11.83;3.17;;;26.80;1.00;;;;;;5013104;28;20388;-78
2021/08/05 12:46:10;;;;;;;2.70;2.50;;;;;;;;;;5013062;28;20786;-78
2021/08/05 12:48:41;;;;;;;2.80;2.57;;;27.10;1.00;;;;;;5013060;28;20810;-78
2021/08/05 12:51:07;;;;;;;2.77;2.57;;;27.00;1.00;;;;;;5016431;28;20423;-79
2021/08/05 12:53:35;;;;;;;3.03;2.43;;;27.10;1.00;;;;;;5013129;28;20925;-79
2021/08/05 12:56:03;;;;;;;2.60;2.30;;;27.00;1.00;;;;;;5013097;28;20477;-79
2021/08/05 12:58:30;;;;;;;3.47;3.17;;;;;;;;;;5012959;28;20939;-79
2021/08/05 13:01:16;;;;;;;4.10;2.50;;;27.30;1.00;;;;;;5012918;28;20419;-79
2021/08/05 13:03:44;;;;;;;2.60;1.50;;;27.30;1.00;;;;;;4952214;28;20511;-79
2021/08/05 13:06:10;;;;;;;2.70;1.63;;;27.50;1.00;;;;;;4952589;29;20951;-82
2021/08/05 13:08:40;;;;;;;1.70;1.60;;;27.80;1.00;;;;;;4952403;28;20959;-82
2021/08/05 13:11:09;;;;;;;3.27;2.20;;;28.00;1.00;;;;;;4951821;28;20771;-83
2021/08/05 13:13:54;;;;;;;2.20;1.90;;;27.90;1.00;;;;;;4952493;29;20406;-82
2021/08/05 13:16:24;;;;;;;3.80;1.63;;;27.70;1.00;;;;;;4952184;29;20957;-82
2021/08/05 13:19:19;;;;;;;1.70;1.60;;;;;;;;;;4952089;29;20532;-82
2021/08/05 13:21:45;;;;;;;3.03;1.80;;;27.80;1.00;;;;;;4944486;29;20814;-82
2021/08/05 13:24:13;;;;;;;1.90;1.80;;;27.80;1.00;;;;;;4951986;29;20433;-82
2021/08/05 13:26:39;;;;;;;1.87;1.53;;;27.80;1.00;;;;;;4952347;29;20413;-82
2021/08/05 13:29:09;;;;;;;5.50;2.07;;;27.80;1.00;;;;;;4951398;29;20787;-82
2021/08/05 13:31:35;;;;;;;7.20;2.23;;;27.80;1.00;;;;;;4936368;29;20191;-82
2021/08/05 13:34:21;;;;;;;2.40;2.00;;;27.60;1.00;;;;;;4943559;29;20896;-83
2021/08/05 13:37:20;;;;;;;2.07;1.90;;;27.80;1.00;;;;;;4951897;28;20189;-82
2021/08/05 13:40:32;;;;;;;5.20;2.10;;;27.80;1.00;;;;;;4953425;28;20510;-82
2021/08/05 13:43:32;;;;;;;2.00;1.90;;;28.00;1.00;;;;;;5021066;28;20417;-82
2021/08/05 13:46:33;;;;;;;2.53;1.90;;;28.00;1.00;;;;;;5027449;28;20471;-82
2021/08/05 13:49:33;;;;;;;2.57;2.37;;;27.60;1.00;;;;;;5022269;28;20444;-82
2021/08/05 13:52:05;;;;;;;4.30;2.10;;;27.70;1.00;;;;;;5016001;28;20419;-83
2021/08/05 13:54:40;;;;;;;3.73;2.30;;;27.60;1.00;;;;;;5024366;28;20446;-82
2021/08/05 14:00:29;;;;;;;2.20;2.10;;;27.40;1.00;;;;;;5036353;28;20812;-83
2021/08/05 14:02:55;;;;;;;2.00;1.90;;;27.60;1.00;;;;;;5033949;28;20456;-78
2021/08/05 14:05:21;;;;;;;4.73;2.00;;;27.60;1.00;;;;;;5030588;28;20417;-78
2021/08/05 14:07:51;;;;;;;2.60;2.40;;;27.60;1.00;;;;;;5022795;28;20425;-78
2021/08/05 14:10:19;;;;;;;2.30;2.10;;;27.60;1.00;;;;;;5021599;28;20210;-78
2021/08/05 14:12:44;;;;;;;2.30;2.10;;;27.30;1.00;;;;;;5015770;28;20403;-78
2021/08/05 14:15:12;;;;;;;4.27;2.57;;;27.20;1.00;;;;;;5015255;28;20419;-78
2021/08/05 14:17:37;;;;;;;4.20;2.57;;;26.80;1.00;;;;;;5016018;28;20193;-79
2021/08/05 14:20:05;;;;;;;4.37;2.10;;;26.70;1.00;;;;;;5024862;28;20783;-79
2021/08/05 14:22:30;;;;;;;2.90;2.70;;;26.80;1.00;;;;;;5015858;28;20187;-77
2021/08/05 14:24:56;;;;;;;2.10;2.00;;;26.90;1.00;;;;;;5021709;28;20430;-77
2021/08/05 14:27:22;;;;;;;3.57;2.20;;;26.90;1.00;;;;;;5035101;28;20172;-77
2021/08/05 14:29:48;;;;;;;3.03;2.57;;;26.80;1.00;;;;;;5035041;28;20681;-76
2021/08/05 14:32:13;;;;;;;5.50;2.30;;;26.90;1.00;;;;;;5035298;28;20425;-76
2021/08/05 14:34:39;;;;;;;2.80;2.20;;;26.80;1.00;;;;;;5034607;28;20181;-76
2021/08/05 14:37:09;;;;;;;2.33;1.90;;;26.70;1.00;;;;;;5029284;28;20208;-79
2021/08/05 14:39:35;;;;;;;4.53;2.20;;;26.60;1.00;;;;;;5015635;28;20253;-79
2021/08/05 14:42:03;;;;;;;2.40;1.97;;;;;;;;;;5032984;28;20513;-79
2021/08/05 14:44:29;;;;;;;2.50;1.93;;;26.40;1.00;;;;;;5035638;28;20174;-79
2021/08/05 14:47:03;;;;;;;3.80;2.53;;;26.10;1.00;;;;;;5035366;28;20425;-79
2021/08/05 14:49:33;;;;;;;2.27;1.93;;;26.00;1.00;;;;;;5033664;28;20233;-79
2021/08/05 14:52:21;;;;;;;2.60;1.87;;;26.00;1.00;;;;;;5034783;28;20422;-79
2021/08/05 14:55:04;;;;;;;3.27;2.20;;;26.00;1.00;;;;;;5035435;28;20398;-79
2021/08/05 14:57:33;;;;;;;3.10;2.70;;;26.40;1.00;;;;;;5035320;28;20943;-79
2021/08/05 15:00:04;;;;;;;2.00;1.80;;;26.70;1.00;;;;;;5020180;28;20463;-83
2021/08/05 15:02:34;;;;;;;2.50;2.23;;;27.00;1.00;;;;;;5015667;28;20440;-82
2021/08/05 15:05:03;;;;;;;2.17;1.70;;;27.70;1.00;;;;;;5019465;28;20421;-83
2021/08/05 15:07:33;;;;;;;5.10;1.90;;;27.90;1.00;;;;;;5015198;28;20523;-79
2021/08/05 15:10:29;;;;;;;2.17;1.73;;;28.20;1.00;;;;;;5015369;28;20904;-77
2021/08/05 15:12:55;;;;;;;2.63;1.60;;;28.40;1.00;;;;;;5015304;28;20441;-76
2021/08/05 15:15:34;;;;;;;3.23;1.70;;;28.40;1.00;;;;;;5015334;28;20398;-76
2021/08/05 15:18:15;;;;;;;1.90;1.80;;;28.60;1.00;;;;;;5015444;28;20446;-76
2021/08/05 15:21:09;;;;;;;3.27;1.40;;;28.70;1.00;;;;;;5027036;28;20440;-76
2021/08/05 15:23:45;;;;;;;2.23;2.03;;;28.70;1.00;;;;;;5017829;28;20417;-75
2021/08/05 15:26:29;;;;;;;2.13;1.93;;;28.60;1.00;;;;;;5034405;28;20415;-78
2021/08/05 15:29:32;;;;;;;3.07;1.83;;;28.60;1.00;;;;;;5034744;28;20909;-78
2021/08/05 15:32:33;;;;;;;1.77;1.67;;;28.60;1.00;;;;;;5034929;28;20743;-78
2021/08/05 15:35:08;;;;;;;2.60;2.00;;;29.80;1.00;;;;;;5027552;28;20522;-78
2021/08/05 15:37:51;;;;;;;1.90;1.70;;;30.70;1.00;;;;;;5020846;28;20462;-81
2021/08/05 15:40:39;;;;;;;1.77;1.60;;;30.70;1.00;;;;;;5034526;28;20473;-82
2021/08/05 15:43:56;;;;;;;1.60;1.50;;;30.70;1.00;;;;;;5034635;28;20478;-82
2021/08/05 15:46:57;;;;;;;2.03;1.67;;;30.40;1.00;;;;;;5032218;28;21073;-80
2021/08/05 15:49:39;;;;;;;2.20;1.73;;;30.70;1.00;;;;;;5034280;28;20855;-81
2021/08/05 15:52:18;;;;;;;1.90;1.80;;;33.40;1.00;;;;;;5034430;28;20406;-80
2021/08/05 15:55:03;;;;;;;4.03;1.30;;;36.00;1.00;;;;;;5034728;28;20422;-78
2021/08/05 15:57:31;;;;;;;1.43;1.23;;;37.60;1.00;;;;;;5030960;28;20461;-73
2021/08/05 15:59:57;;;;;;;1.50;1.40;;;;;;;;;;5034383;28;20396;-78
2021/08/05 16:02:51;;;;;;;1.03;1.03;;;39.70;1.00;;;;;;5034336;28;20412;-79
2021/08/05 16:05:27;;;;;;;1.20;1.20;;;40.80;1.00;;;;;;5034319;28;20907;-79
2021/08/05 16:11:15;;;;;;;1.53;1.37;;;42.20;1.00;;;;;;5033888;28;20394;-82
2021/08/05 16:13:51;;;;;;;2.70;1.27;;;42.80;1.00;;;;;;5033988;28;20486;-80
2021/08/05 16:16:21;;;;;;;1.73;1.00;;;42.80;1.00;;;;;;5031147;28;20179;-79
2021/08/05 16:22:15;;;;;;;1.47;0.90;;;43.10;1.00;;;;;;5022570;28;20403;-79